Aviation Digital Data Service (ADDS)

Output produced by METARs form (1806 UTC 19 October 2017)
found at http://www.aviationweather.gov/adds/metars/
 
UKKM 191800Z AUTO 03002MPS 340V070 9000 ///019/// 11/10 Q1016
TAF UKKM 191701Z 1918/2018 VRB02MPS 5000 BR SCT010 
     TEMPO 1920/2006 0300 FG VV001 
     BECMG 2006/2008 04005MPS 9999 NSW BKN015
       
UKBB 191800Z 03003MPS CAVOK 13/11 Q1016 R88/CLRD// NOSIG
TAF UKBB 191702Z 1918/2018 04005MPS 6000 BKN030 
     TEMPO 1918/1924 1000 BR BKN003 
     TEMPO 2000/2007 0400 -DZ FG OVC002
       
UKBB 191800Z 03003MPS CAVOK 13/11 Q1016 R88/CLRD// NOSIG
TAF UKBB 191702Z 1918/2018 04005MPS 6000 BKN030 
     TEMPO 1918/1924 1000 BR BKN003 
     TEMPO 2000/2007 0400 -DZ FG OVC002
       
UKDD 191800Z 20003MPS 140V230 0050 R26/0300N FG VV000 12/12 Q1017 R26/090070 NOSIG
TAF UKDD 191707Z 1918/2018 VRB02MPS 0200 FG VV001 
     TEMPO 1918/1924 20004MPS 1100 BR OVC002 
     BECMG 2008/2010 3100 BR SCT004 BKN010
       
UKDE 191800Z 09001MPS 0000 R02/M0200N FG VV001 09/09 Q1018 R02/CLRD70 NOSIG
TAF UKDE 191705Z 1918/2003 VRB02MPS 0100 -DZ FG VV001
       
UKDR 191800Z 21004MPS CAVOK 13/09 Q1016 R36/09//70 NOSIG
TAF UKDR 191706Z 1918/2018 VRB02MPS 3100 BR SCT011 
     BECMG 1920/1922 0200 FG VV002 
     BECMG 2008/2010 24005MPS 9999 NSW BKN011
       
UKHH 191800Z VRB01MPS 2400 BR OVC005 12/11 Q1017 R07/0///66 BECMG 1600 OVC004
TAF UKHH 191710Z 1918/2003 29003MPS 1600 BR OVC004 
     TEMPO 1918/1921 0400 -DZ FG OVC002 
     BECMG 1921/1922 0300 FG OVC001 
     TEMPO 1922/2003 1100 -SHRA BR BKN002 BKN015CB
       
UKKK 191800Z 03003MPS 8000 NSC 12/11 Q1016 R08/CLRD70 TEMPO 2000 BR
TAF UKKK 191701Z 1918/2018 VRB02MPS 4000 BR BKN015 
     TEMPO 1918/2006 0400 -DZ FG OVC002 
     BECMG 2006/2008 04005G10MPS 9999 NSW BKN030
       
UKKM 191800Z AUTO 03002MPS 340V070 9000 ///019/// 11/10 Q1016
TAF UKKM 191701Z 1918/2018 VRB02MPS 5000 BR SCT010 
     TEMPO 1920/2006 0300 FG VV001 
     BECMG 2006/2008 04005MPS 9999 NSW BKN015
       
UKLI 191800Z 28003MPS CAVOK 12/08 Q1016 R28/090070 NOSIG
TAF UKLI 191701Z 1918/2003 VRB02MPS 4000 BR SCT030 
     TEMPO 1918/1924 1000 BR
       
UKLL 191800Z 00000MPS 4600 FU NSC 09/07 Q1016 R31/CLRD// NOSIG
TAF UKLL 191702Z 1918/2018 VRB02MPS 2100 BR SCT003 BKN007 
     TEMPO 1918/2007 0200 FG VV001 
     BECMG 2007/2009 11003MPS 9999 NSW BKN020 
     TEMPO 2016/2018 2100 BR SCT003
       
UKLN 191800Z 24002MPS 2300 FU SCT200 15/10 Q1015 R15/09//70 NOSIG
TAF UKLN 191705Z 1918/2003 VRB02MPS 3000 BR SCT030 
     TEMPO 1918/2003 1200 BR
       
UKLR 191500Z 06003MPS 9999 FEW030 BKN100 17/13 Q1015 R29/090070 NOSIG
TAF UKLR 191402Z 1915/1924 05003MPS 3000 BR OVC007 
     TEMPO 1916/1924 0500 FG VV002
       
UKLU 191800Z 00000MPS 3500 BR SCT200 12/11 Q1015 NOSIG
TAF UKLU 191701Z 1918/2003 VRB01MPS 2000 BR NSC 
     TEMPO 1918/1921 1000 MIFG BR BKN004 
     TEMPO 1921/2003 0500 FG VV002 TX12/1918Z TN05/2003Z
       
UKOH 191800Z 21005MPS 160V240 5000 BR OVC005 14/14 Q1018 R03/CLRD// NOSIG
TAF UKOH 191704Z 1918/2003 21005MPS 1000 BR BKN004 BKN020 
     TEMPO 1918/2003 0200 FG VV002
       
UKON 191700Z 19005MPS 4800 BR SCT013 OVC200 14/13 Q1017 NOSIG
TAF UKON 191403Z 1915/1924 20003MPS 2100 BR BKN007 
     TEMPO 1918/1924 0200 FG VV002
       
UKOO 191800Z 19005MPS 7000 FEW010 14/14 Q1017 R16/090060 NOSIG
TAF UKOO 191705Z 1918/2018 19003MPS 1000 BR SCT003 BKN007 
     TEMPO 1918/2007 0200 FG VV001 
     BECMG 2007/2008 2100
       
UKWW 191700Z 27002MPS CAVOK 16/13 Q1015 R13/0///65 NOSIG
TAF UKWW 191410Z 1915/1924 VRB02MPS 9999 SCT030 
     TEMPO 1918/1924 2100 BR OVC005
       
UKLN 191800Z 24002MPS 2300 FU SCT200 15/10 Q1015 R15/09//70 NOSIG
TAF UKLN 191705Z 1918/2003 VRB02MPS 3000 BR SCT030 
     TEMPO 1918/2003 1200 BR
       
UKDD 191800Z 20003MPS 140V230 0050 R26/0300N FG VV000 12/12 Q1017 R26/090070 NOSIG
TAF UKDD 191707Z 1918/2018 VRB02MPS 0200 FG VV001 
     TEMPO 1918/1924 20004MPS 1100 BR OVC002 
     BECMG 2008/2010 3100 BR SCT004 BKN010
       
UKLI 191800Z 28003MPS CAVOK 12/08 Q1016 R28/090070 NOSIG
TAF UKLI 191701Z 1918/2003 VRB02MPS 4000 BR SCT030 
     TEMPO 1918/1924 1000 BR
       
UKDR 191800Z 21004MPS CAVOK 13/09 Q1016 R36/09//70 NOSIG
TAF UKDR 191706Z 1918/2018 VRB02MPS 3100 BR SCT011 
     BECMG 1920/1922 0200 FG VV002 
     BECMG 2008/2010 24005MPS 9999 NSW BKN011
       
UKLL 191800Z 00000MPS 4600 FU NSC 09/07 Q1016 R31/CLRD// NOSIG
TAF UKLL 191702Z 1918/2018 VRB02MPS 2100 BR SCT003 BKN007 
     TEMPO 1918/2007 0200 FG VV001 
     BECMG 2007/2009 11003MPS 9999 NSW BKN020 
     TEMPO 2016/2018 2100 BR SCT003
       
UKDE 191800Z 09001MPS 0000 R02/M0200N FG VV001 09/09 Q1018 R02/CLRD70 NOSIG
TAF UKDE 191705Z 1918/2003 VRB02MPS 0100 -DZ FG VV001
       
UKON 191700Z 19005MPS 4800 BR SCT013 OVC200 14/13 Q1017 NOSIG
TAF UKON 191403Z 1915/1924 20003MPS 2100 BR BKN007 
     TEMPO 1918/1924 0200 FG VV002
       
UKOO 191800Z 19005MPS 7000 FEW010 14/14 Q1017 R16/090060 NOSIG
TAF UKOO 191705Z 1918/2018 19003MPS 1000 BR SCT003 BKN007 
     TEMPO 1918/2007 0200 FG VV001 
     BECMG 2007/2008 2100
       
UKHH 191800Z VRB01MPS 2400 BR OVC005 12/11 Q1017 R07/0///66 BECMG 1600 OVC004
TAF UKHH 191710Z 1918/2003 29003MPS 1600 BR OVC004 
     TEMPO 1918/1921 0400 -DZ FG OVC002 
     BECMG 1921/1922 0300 FG OVC001 
     TEMPO 1922/2003 1100 -SHRA BR BKN002 BKN015CB
       
UKLR 191500Z 06003MPS 9999 FEW030 BKN100 17/13 Q1015 R29/090070 NOSIG
TAF UKLR 191402Z 1915/1924 05003MPS 3000 BR OVC007 
     TEMPO 1916/1924 0500 FG VV002
       
UKLU 191800Z 00000MPS 3500 BR SCT200 12/11 Q1015 NOSIG
TAF UKLU 191701Z 1918/2003 VRB01MPS 2000 BR NSC 
     TEMPO 1918/1921 1000 MIFG BR BKN004 
     TEMPO 1921/2003 0500 FG VV002 TX12/1918Z TN05/2003Z
       
UKKK 191800Z 03003MPS 8000 NSC 12/11 Q1016 R08/CLRD70 TEMPO 2000 BR
TAF UKKK 191701Z 1918/2018 VRB02MPS 4000 BR BKN015 
     TEMPO 1918/2006 0400 -DZ FG OVC002 
     BECMG 2006/2008 04005G10MPS 9999 NSW BKN030